createdAt,value
2022-08-30T04:02:18.855Z,0.00
2022-08-30T04:03:18.968Z,0.00
2022-08-30T04:04:21.180Z,0.00
2022-08-30T04:05:21.402Z,0.00
2022-08-30T04:06:46.436Z,0.00
2022-08-30T04:07:19.988Z,0.00
2022-08-30T04:08:21.430Z,0.00
2022-08-30T04:09:19.930Z,0.00
2022-08-30T04:10:20.855Z,0.00
2022-08-30T04:11:19.984Z,0.00
2022-08-30T04:12:22.875Z,0.00
2022-08-30T04:13:20.054Z,0.00
2022-08-30T04:14:19.974Z,0.00
2022-08-30T04:15:19.856Z,0.00
2022-08-30T04:16:20.067Z,5.62
2022-08-30T04:17:19.867Z,5.62
2022-08-30T04:18:20.586Z,5.62
2022-08-30T04:19:19.899Z,5.62
2022-08-30T04:20:19.958Z,5.62
2022-08-30T04:21:19.860Z,5.62
2022-08-30T04:22:20.606Z,5.62
2022-08-30T04:23:19.868Z,5.62
2022-08-30T04:24:19.859Z,11.25
2022-08-30T04:25:19.869Z,11.25
2022-08-30T04:26:19.858Z,11.25
2022-08-30T04:27:19.824Z,11.25
2022-08-30T04:28:54.005Z,16.88
2022-08-30T04:29:19.757Z,16.88
2022-08-30T04:30:19.746Z,16.88
2022-08-30T04:31:19.787Z,22.50
2022-08-30T04:32:19.782Z,22.50
2022-08-30T04:33:19.738Z,22.50
2022-08-30T04:34:19.722Z,28.12
2022-08-30T04:35:19.774Z,33.75
2022-08-30T04:36:19.797Z,39.38
2022-08-30T04:37:19.725Z,45.00
2022-08-30T04:38:22.353Z,45.00
2022-08-30T04:39:20.390Z,45.00
2022-08-30T04:40:20.625Z,50.62
2022-08-30T04:41:19.710Z,56.25
2022-08-30T04:42:19.679Z,61.88
2022-08-30T04:43:19.692Z,67.50
2022-08-30T04:44:19.884Z,73.12
2022-08-30T04:45:19.676Z,78.75
2022-08-30T04:46:19.843Z,78.75
2022-08-30T04:47:19.652Z,90.00
2022-08-30T04:48:19.682Z,95.62
2022-08-30T04:49:55.696Z,106.88
2022-08-30T04:50:19.707Z,118.12
2022-08-30T04:51:22.921Z,129.38
2022-08-30T04:52:19.671Z,135.00
2022-08-30T04:53:20.164Z,140.62
2022-08-30T04:54:19.621Z,151.88
2022-08-30T04:55:20.499Z,163.12
2022-08-30T04:56:20.618Z,174.38
2022-08-30T04:57:19.607Z,180.00
2022-08-30T04:58:19.640Z,185.62
2022-08-30T04:59:19.525Z,191.25
2022-08-30T05:00:19.563Z,202.50
2022-08-30T05:01:53.624Z,208.12
2022-08-30T05:02:53.627Z,219.38
2022-08-30T05:03:20.486Z,225.00
2022-08-30T05:04:19.688Z,230.62
2022-08-30T05:05:19.793Z,236.25
2022-08-30T05:06:20.486Z,247.50
2022-08-30T05:07:19.771Z,253.12
2022-08-30T05:08:24.343Z,258.75
2022-08-30T05:09:20.707Z,264.38
2022-08-30T05:10:19.848Z,298.12
2022-08-30T05:11:20.980Z,483.75
2022-08-30T05:12:19.685Z,697.50
2022-08-30T05:13:19.798Z,843.75
2022-08-30T05:14:20.354Z,911.25
2022-08-30T05:15:19.578Z,945.00
2022-08-30T05:16:19.605Z,950.62
2022-08-30T05:17:20.603Z,933.75
2022-08-30T05:18:19.479Z,967.50
2022-08-30T05:19:19.540Z,1035.00
2022-08-30T05:20:19.937Z,843.75
2022-08-30T05:21:19.668Z,298.12
2022-08-30T05:22:20.692Z,315.00
2022-08-30T05:23:20.234Z,337.50
2022-08-30T05:24:19.769Z,365.62
2022-08-30T05:25:19.546Z,393.75
2022-08-30T05:26:20.305Z,472.50
2022-08-30T05:27:20.709Z,933.75
2022-08-30T05:28:21.024Z,956.25
2022-08-30T05:29:20.467Z,922.50
2022-08-30T05:30:20.075Z,1186.88
2022-08-30T05:31:20.219Z,1220.62
2022-08-30T05:32:19.523Z,1074.38
2022-08-30T05:33:19.460Z,894.38
2022-08-30T05:34:19.456Z,1096.88
2022-08-30T05:35:23.528Z,585.00
2022-08-30T05:36:21.403Z,455.62
2022-08-30T05:37:21.995Z,478.12
2022-08-30T05:38:19.378Z,461.25
2022-08-30T05:39:19.671Z,500.62
2022-08-30T05:40:19.390Z,540.00
2022-08-30T05:41:19.390Z,630.00
2022-08-30T05:42:19.428Z,669.38
2022-08-30T05:43:20.389Z,1068.75
2022-08-30T05:44:22.982Z,810.00
2022-08-30T05:45:20.994Z,675.00
2022-08-30T05:46:20.206Z,601.88
2022-08-30T05:47:19.794Z,1378.12
2022-08-30T05:48:19.349Z,1963.12
2022-08-30T05:49:19.485Z,1575.00
2022-08-30T05:50:19.322Z,1265.62
2022-08-30T05:51:19.280Z,810.00
2022-08-30T05:52:20.003Z,1265.62
2022-08-30T05:53:19.223Z,461.25
2022-08-30T05:54:19.996Z,421.88
2022-08-30T05:55:19.159Z,399.38
2022-08-30T05:56:19.236Z,354.38
2022-08-30T05:57:19.135Z,326.25
2022-08-30T05:58:19.155Z,315.00
2022-08-30T05:59:19.995Z,298.12
2022-08-30T06:00:19.894Z,286.88
2022-08-30T06:01:19.090Z,275.62
2022-08-30T06:02:20.065Z,264.38
2022-08-30T06:03:19.110Z,258.75
2022-08-30T06:04:19.108Z,247.50
2022-08-30T06:05:19.112Z,247.50
2022-08-30T06:06:19.105Z,253.12
2022-08-30T06:07:21.165Z,264.38
2022-08-30T06:08:19.138Z,270.00
2022-08-30T06:09:19.124Z,298.12
2022-08-30T06:10:19.157Z,326.25
2022-08-30T06:11:19.268Z,360.00
2022-08-30T06:12:19.065Z,388.12
2022-08-30T06:13:19.086Z,427.50
2022-08-30T06:14:19.077Z,466.88
2022-08-30T06:15:19.063Z,517.50
2022-08-30T06:16:19.057Z,703.12
2022-08-30T06:17:18.976Z,2081.25
2022-08-30T06:18:18.948Z,1344.38
2022-08-30T06:19:20.008Z,2750.62
2022-08-30T06:20:18.967Z,3060.00
2022-08-30T06:21:18.990Z,3009.38
2022-08-30T06:22:19.549Z,3161.25
2022-08-30T06:23:19.777Z,3335.62
2022-08-30T06:24:19.003Z,3420.00
2022-08-30T06:25:18.949Z,3459.38
2022-08-30T06:26:19.348Z,3448.12
2022-08-30T06:27:19.505Z,3549.38
2022-08-30T06:28:19.052Z,3605.62
2022-08-30T06:29:18.919Z,3605.62
2022-08-30T06:30:18.917Z,3616.88
2022-08-30T06:31:18.983Z,3583.12
2022-08-30T06:32:18.878Z,3431.25
2022-08-30T06:33:18.852Z,3476.25
2022-08-30T06:34:18.862Z,3515.62
2022-08-30T06:35:19.914Z,3763.12
2022-08-30T06:36:20.505Z,3723.75
2022-08-30T06:37:29.056Z,3577.50
2022-08-30T06:38:20.508Z,3301.88
2022-08-30T06:39:18.893Z,3594.38
2022-08-30T06:40:18.881Z,3633.75
2022-08-30T06:41:18.851Z,2368.12
2022-08-30T06:42:19.508Z,1198.12
2022-08-30T06:43:18.812Z,1411.88
2022-08-30T06:44:18.779Z,900.00
2022-08-30T06:45:18.773Z,821.25
2022-08-30T06:46:18.777Z,798.75
2022-08-30T06:47:18.825Z,815.62
2022-08-30T06:48:18.940Z,888.75
2022-08-30T06:49:18.808Z,1074.38
2022-08-30T06:50:18.769Z,1029.38
2022-08-30T06:51:18.796Z,1080.00
2022-08-30T06:52:19.511Z,1839.38
2022-08-30T06:53:20.013Z,911.25
2022-08-30T06:54:19.511Z,815.62
2022-08-30T06:55:18.811Z,798.75
2022-08-30T06:56:18.986Z,888.75
2022-08-30T06:57:19.625Z,978.75
2022-08-30T06:58:18.630Z,1788.75
2022-08-30T06:59:19.537Z,1068.75
2022-08-30T07:00:18.675Z,1996.88
2022-08-30T07:01:19.629Z,1490.62
2022-08-30T07:02:19.554Z,1108.12
2022-08-30T07:03:18.720Z,1096.88
2022-08-30T07:04:18.742Z,1130.62
2022-08-30T07:05:19.161Z,1153.12
2022-08-30T07:06:19.652Z,1271.25
2022-08-30T07:07:18.726Z,1164.38
2022-08-30T07:08:56.163Z,1608.75
2022-08-30T07:09:19.427Z,3245.62
2022-08-30T07:10:18.585Z,2936.25
2022-08-30T07:11:19.310Z,1546.88
2022-08-30T07:12:19.234Z,2036.25
2022-08-30T07:13:19.318Z,1271.25
2022-08-30T07:14:19.654Z,1935.00
2022-08-30T07:15:18.661Z,1271.25
2022-08-30T07:16:19.397Z,1260.00
2022-08-30T07:17:18.629Z,3926.25
2022-08-30T07:18:19.061Z,3898.12
2022-08-30T07:19:20.700Z,3982.50
2022-08-30T07:20:18.564Z,3307.50
2022-08-30T07:21:52.704Z,1963.12
2022-08-30T07:22:52.712Z,3240.00
2022-08-30T07:23:53.816Z,1451.25
2022-08-30T07:24:18.412Z,1321.88
2022-08-30T07:25:19.907Z,1378.12
2022-08-30T07:26:18.499Z,1468.12
2022-08-30T07:27:18.555Z,1468.12
2022-08-30T07:28:18.471Z,1518.75
2022-08-30T07:29:18.464Z,4027.50
2022-08-30T07:30:19.363Z,1417.50
2022-08-30T07:31:18.514Z,1299.38
2022-08-30T07:32:18.424Z,1231.88
2022-08-30T07:33:19.359Z,1158.75
2022-08-30T07:34:20.631Z,1102.50
2022-08-30T07:35:18.359Z,1063.12
2022-08-30T07:36:18.416Z,1102.50
2022-08-30T07:37:18.382Z,1136.25
2022-08-30T07:38:18.334Z,1378.12
2022-08-30T07:39:18.351Z,1237.50
2022-08-30T07:40:18.550Z,1293.75
2022-08-30T07:41:18.943Z,1816.88
2022-08-30T07:42:18.376Z,1428.75
2022-08-30T07:43:18.539Z,1541.25
2022-08-30T07:44:19.044Z,1350.00
2022-08-30T07:45:18.518Z,1530.00
2022-08-30T07:46:19.107Z,3960.00
2022-08-30T07:47:18.458Z,3279.38
2022-08-30T07:48:19.163Z,2356.88
2022-08-30T07:49:18.343Z,1209.38
2022-08-30T07:50:18.423Z,1006.88
2022-08-30T07:51:18.222Z,922.50
2022-08-30T07:52:18.260Z,860.62
2022-08-30T07:53:18.354Z,810.00
2022-08-30T07:54:18.296Z,770.62
2022-08-30T07:55:19.164Z,748.12
2022-08-30T07:56:18.293Z,731.25
2022-08-30T07:57:18.200Z,736.88
2022-08-30T07:58:18.290Z,748.12
2022-08-30T07:59:18.236Z,804.38
2022-08-30T08:00:18.270Z,928.12
2022-08-30T08:01:19.041Z,3954.38
2022-08-30T08:02:18.362Z,3909.38
2022-08-30T08:03:18.666Z,3999.38
2022-08-30T08:04:19.175Z,3881.25
2022-08-30T08:08:28.580Z,4140.00
2022-08-30T08:09:29.797Z,4033.12
2022-08-30T08:10:29.783Z,4066.88
2022-08-30T08:11:33.487Z,4117.50
2022-08-30T08:12:30.803Z,4156.88
2022-08-30T08:13:32.763Z,4173.75
2022-08-30T08:14:30.848Z,4061.25
2022-08-30T08:16:03.174Z,4044.38
2022-08-30T08:16:29.644Z,4117.50
2022-08-30T08:17:29.668Z,4185.00
2022-08-30T08:18:29.705Z,4111.88
2022-08-30T08:19:29.645Z,4218.75
2022-08-30T08:20:29.639Z,4061.25
2022-08-30T08:21:29.664Z,3960.00
2022-08-30T08:22:29.640Z,4185.00
2022-08-30T08:23:29.612Z,4303.12
2022-08-30T08:24:29.624Z,4241.25
2022-08-30T08:25:29.623Z,4258.12
2022-08-30T08:26:29.610Z,4207.50
2022-08-30T08:27:29.563Z,4089.38
2022-08-30T08:28:29.603Z,4095.00
2022-08-30T08:29:29.613Z,4196.25
2022-08-30T08:30:30.575Z,4308.75
2022-08-30T08:31:33.462Z,4021.88
2022-08-30T08:32:29.562Z,4106.25
2022-08-30T08:33:29.623Z,4185.00
2022-08-30T08:34:29.519Z,4218.75
2022-08-30T08:35:30.079Z,4252.50
2022-08-30T08:36:29.510Z,4100.62
2022-08-30T08:37:29.500Z,4173.75
2022-08-30T08:38:29.496Z,4106.25
2022-08-30T08:39:29.513Z,4156.88
2022-08-30T08:40:29.562Z,4117.50
2022-08-30T08:41:29.520Z,3926.25
2022-08-30T08:42:29.480Z,3808.12
2022-08-30T08:43:29.508Z,3628.12
2022-08-30T08:44:34.262Z,3847.50
2022-08-30T08:45:31.455Z,3763.12
2022-08-30T08:46:29.476Z,3543.75
2022-08-30T08:47:29.456Z,3763.12
2022-08-30T08:48:45.675Z,4027.50
2022-08-30T08:49:30.407Z,3875.62
2022-08-30T08:50:29.419Z,3971.25
2022-08-30T08:51:29.406Z,3847.50
2022-08-30T08:52:29.407Z,3808.12
2022-08-30T08:53:45.525Z,3937.50
2022-08-30T08:54:31.427Z,2086.88
2022-08-30T08:55:29.420Z,3645.00
2022-08-30T08:56:30.163Z,2508.75
2022-08-30T08:57:29.503Z,2604.38
2022-08-30T08:58:29.427Z,1755.00
2022-08-30T08:59:29.392Z,2143.12
2022-08-30T09:00:30.271Z,2221.88
2022-08-30T09:01:29.439Z,1901.25
2022-08-30T09:02:29.354Z,1704.38
2022-08-30T09:03:29.378Z,1423.12
2022-08-30T09:04:29.337Z,2120.62
2022-08-30T09:05:29.348Z,1434.38
2022-08-30T09:06:29.358Z,3442.50
2022-08-30T09:07:30.162Z,3048.75
2022-08-30T09:08:29.319Z,2244.38
2022-08-30T09:09:29.280Z,3937.50
2022-08-30T09:10:49.427Z,3543.75
2022-08-30T09:11:31.346Z,2013.75
2022-08-30T09:12:29.289Z,1766.25
2022-08-30T09:13:30.086Z,1580.62
2022-08-30T09:14:30.383Z,1771.88
2022-08-30T09:15:29.341Z,1569.38
2022-08-30T09:16:29.273Z,1760.62
2022-08-30T09:17:29.233Z,1760.62
2022-08-30T09:18:29.231Z,1518.75
2022-08-30T09:19:29.204Z,1485.00
2022-08-30T09:20:30.244Z,1428.75
2022-08-30T09:21:30.090Z,1310.62
2022-08-30T09:22:29.212Z,1271.25
2022-08-30T09:23:29.192Z,1299.38
2022-08-30T09:24:29.204Z,1220.62
2022-08-30T09:25:29.136Z,1406.25
2022-08-30T09:26:29.172Z,1254.38
2022-08-30T09:27:29.241Z,1248.75
2022-08-30T09:28:29.163Z,1231.88
2022-08-30T09:29:29.115Z,1501.88
2022-08-30T09:30:30.113Z,1636.88
2022-08-30T09:31:29.150Z,1440.00
2022-08-30T09:32:29.105Z,1383.75
2022-08-30T09:33:29.133Z,1293.75
2022-08-30T09:34:29.072Z,1350.00
2022-08-30T09:35:29.106Z,1456.88
2022-08-30T09:36:29.091Z,1496.25
2022-08-30T09:37:29.122Z,1445.62
2022-08-30T09:38:29.228Z,1434.38
2022-08-30T09:39:29.064Z,1411.88
2022-08-30T09:40:29.162Z,1411.88
2022-08-30T09:41:29.068Z,1378.12
2022-08-30T09:42:29.033Z,1378.12
2022-08-30T09:43:29.059Z,1479.38
2022-08-30T09:44:29.020Z,1215.00
2022-08-30T09:45:30.031Z,900.00
2022-08-30T09:46:29.046Z,849.38
2022-08-30T09:47:28.986Z,821.25
2022-08-30T09:48:28.971Z,821.25
2022-08-30T09:49:28.973Z,1738.12
2022-08-30T09:50:28.971Z,1687.50
2022-08-30T09:51:28.949Z,995.62
2022-08-30T09:52:28.998Z,2120.62
2022-08-30T09:53:28.987Z,1681.88
2022-08-30T09:54:31.023Z,1018.12
2022-08-30T09:55:28.930Z,1372.50
2022-08-30T09:56:28.946Z,1749.38
2022-08-30T09:57:33.770Z,1749.38
2022-08-30T09:58:30.686Z,1715.62
2022-08-30T09:59:29.920Z,1670.62
2022-08-30T10:00:29.684Z,1248.75
2022-08-30T10:01:28.951Z,956.25
2022-08-30T10:02:30.005Z,911.25
2022-08-30T10:03:36.301Z,1248.75
2022-08-30T10:04:31.151Z,1006.88
2022-08-30T10:05:29.848Z,995.62
2022-08-30T10:06:28.867Z,1316.25
2022-08-30T10:07:29.285Z,1113.75
2022-08-30T10:08:28.868Z,1260.00
2022-08-30T10:09:28.845Z,1018.12
2022-08-30T10:10:28.820Z,1035.00
2022-08-30T10:11:28.822Z,1231.88
2022-08-30T10:12:28.824Z,1192.50
2022-08-30T10:13:28.821Z,1091.25
2022-08-30T10:14:28.845Z,1153.12
2022-08-30T10:15:28.817Z,1119.38
2022-08-30T10:16:29.312Z,1051.88
2022-08-30T10:17:28.865Z,1080.00
2022-08-30T10:18:29.697Z,990.00
2022-08-30T10:19:29.284Z,1046.25
2022-08-30T10:20:28.751Z,1035.00
2022-08-30T10:21:29.681Z,1057.50
2022-08-30T10:22:28.721Z,1063.12
2022-08-30T10:23:28.711Z,1046.25
2022-08-30T10:24:33.206Z,1063.12
2022-08-30T10:25:30.287Z,1029.38
2022-08-30T10:26:29.962Z,978.75
2022-08-30T10:27:28.731Z,1006.88
2022-08-30T10:28:28.682Z,995.62
2022-08-30T10:29:28.713Z,990.00
2022-08-30T10:30:28.688Z,984.38
2022-08-30T10:31:28.704Z,967.50
2022-08-30T10:32:28.730Z,961.88
2022-08-30T10:33:28.683Z,961.88
2022-08-30T10:34:28.667Z,950.62
2022-08-30T10:35:29.083Z,950.62
2022-08-30T10:36:28.631Z,928.12
2022-08-30T10:37:28.673Z,905.62
2022-08-30T10:38:28.622Z,905.62
2022-08-30T10:40:31.310Z,860.62
2022-08-30T10:41:28.654Z,855.00
2022-08-30T10:42:29.122Z,776.25
2022-08-30T10:43:28.640Z,838.12
2022-08-30T10:44:28.673Z,815.62
2022-08-30T10:45:29.123Z,826.88
2022-08-30T10:46:28.565Z,793.12
2022-08-30T10:47:28.591Z,793.12
2022-08-30T10:48:28.582Z,770.62
2022-08-30T10:49:28.547Z,731.25
2022-08-30T10:50:28.554Z,736.88
2022-08-30T10:51:28.538Z,725.62
2022-08-30T10:52:28.557Z,731.25
2022-08-30T10:53:28.539Z,736.88
2022-08-30T10:54:28.538Z,765.00
2022-08-30T10:55:28.486Z,759.38
2022-08-30T10:56:28.536Z,753.75
2022-08-30T10:57:28.491Z,759.38
2022-08-30T10:58:28.475Z,759.38
2022-08-30T10:59:28.463Z,759.38
2022-08-30T11:00:28.498Z,748.12
2022-08-30T11:01:28.792Z,748.12
2022-08-30T11:02:29.462Z,748.12
2022-08-30T11:03:28.465Z,748.12
2022-08-30T11:04:28.446Z,736.88
2022-08-30T11:05:28.437Z,742.50
2022-08-30T11:06:29.346Z,736.88
2022-08-30T11:07:28.460Z,748.12
2022-08-30T11:08:28.430Z,714.38
2022-08-30T11:09:28.457Z,613.12
2022-08-30T11:10:28.415Z,596.25
2022-08-30T11:11:28.391Z,691.88
2022-08-30T11:12:28.385Z,658.12
2022-08-30T11:13:28.380Z,624.38
2022-08-30T11:14:28.374Z,708.75
2022-08-30T11:15:29.678Z,736.88
2022-08-30T11:16:28.386Z,770.62
2022-08-30T11:17:28.362Z,641.25
2022-08-30T11:18:28.318Z,669.38
2022-08-30T11:19:32.304Z,641.25
2022-08-30T11:20:28.305Z,658.12
2022-08-30T11:21:28.324Z,573.75
2022-08-30T11:22:28.313Z,736.88
2022-08-30T11:23:28.320Z,736.88
2022-08-30T11:24:28.292Z,680.62
2022-08-30T11:25:28.270Z,765.00
2022-08-30T11:26:28.259Z,675.00
2022-08-30T11:27:28.292Z,798.75
2022-08-30T11:28:28.240Z,748.12
2022-08-30T11:29:28.293Z,736.88
2022-08-30T11:30:28.255Z,714.38
2022-08-30T11:31:28.263Z,753.75
2022-08-30T11:32:28.234Z,736.88
2022-08-30T11:33:28.239Z,714.38
2022-08-30T11:34:28.234Z,652.50
2022-08-30T11:35:28.222Z,663.75
2022-08-30T11:36:28.208Z,753.75
2022-08-30T11:37:28.226Z,759.38
2022-08-30T11:38:28.215Z,736.88
2022-08-30T11:39:28.200Z,776.25
2022-08-30T11:40:28.181Z,804.38
2022-08-30T11:41:28.870Z,787.50
2022-08-30T11:42:29.390Z,798.75
2022-08-30T11:43:28.170Z,793.12
2022-08-30T11:44:28.850Z,787.50
2022-08-30T11:45:28.614Z,781.88
2022-08-30T11:46:28.229Z,787.50
2022-08-30T11:47:28.174Z,776.25
2022-08-30T11:48:28.108Z,736.88
2022-08-30T11:49:28.102Z,680.62
2022-08-30T11:50:28.091Z,658.12
2022-08-30T11:51:28.123Z,714.38
2022-08-30T11:52:28.696Z,675.00
2022-08-30T11:53:29.110Z,680.62
2022-08-30T11:54:28.130Z,731.25
2022-08-30T11:55:28.090Z,748.12
2022-08-30T11:56:28.064Z,765.00
2022-08-30T11:57:28.117Z,753.75
2022-08-30T11:58:28.091Z,770.62
2022-08-30T11:59:28.060Z,759.38
2022-08-30T12:00:28.548Z,753.75
2022-08-30T12:01:50.783Z,759.38
2022-08-30T12:02:30.220Z,753.75
2022-08-30T12:03:28.073Z,748.12
2022-08-30T12:04:28.009Z,742.50
2022-08-30T12:05:28.876Z,736.88
2022-08-30T12:06:28.010Z,736.88
2022-08-30T12:07:28.012Z,742.50
2022-08-30T12:08:28.163Z,714.38
2022-08-30T12:09:28.011Z,725.62
2022-08-30T12:10:28.027Z,725.62
2022-08-30T12:11:28.014Z,725.62
2022-08-30T12:12:27.972Z,731.25
2022-08-30T12:13:27.963Z,753.75
2022-08-30T12:14:27.973Z,736.88
2022-08-30T12:15:27.918Z,742.50
2022-08-30T12:16:27.942Z,725.62
2022-08-30T12:17:27.890Z,731.25
2022-08-30T12:18:27.880Z,725.62
2022-08-30T12:19:27.895Z,708.75
2022-08-30T12:20:27.900Z,691.88
2022-08-30T12:21:28.051Z,669.38
2022-08-30T12:22:27.921Z,731.25
2022-08-30T12:23:27.851Z,736.88
2022-08-30T12:24:27.869Z,669.38
2022-08-30T12:25:27.879Z,641.25
2022-08-30T12:26:27.838Z,725.62
2022-08-30T12:27:27.830Z,725.62
2022-08-30T12:28:28.823Z,731.25
2022-08-30T12:29:27.810Z,742.50
2022-08-30T12:30:27.842Z,748.12
2022-08-30T12:31:27.964Z,753.75
2022-08-30T12:32:27.800Z,759.38
2022-08-30T12:33:29.328Z,759.38
2022-08-30T12:34:27.868Z,753.75
2022-08-30T12:35:27.766Z,748.12
2022-08-30T12:36:28.796Z,742.50
2022-08-30T12:37:28.392Z,736.88
2022-08-30T12:39:05.456Z,742.50
2022-08-30T12:39:27.753Z,736.88
2022-08-30T12:41:01.509Z,748.12
2022-08-30T12:41:27.751Z,748.12
2022-08-30T12:42:27.763Z,720.00
2022-08-30T12:43:27.688Z,736.88
2022-08-30T12:44:28.709Z,753.75
2022-08-30T12:45:27.777Z,753.75
2022-08-30T12:46:27.826Z,759.38
2022-08-30T12:47:27.710Z,759.38
2022-08-30T12:48:27.713Z,748.12
2022-08-30T12:49:27.679Z,765.00
2022-08-30T12:50:29.458Z,748.12
2022-08-30T12:51:27.649Z,742.50
2022-08-30T12:52:27.705Z,753.75
2022-08-30T12:53:27.661Z,748.12
2022-08-30T12:54:27.636Z,748.12
2022-08-30T12:55:27.633Z,686.25
2022-08-30T12:56:49.471Z,534.38
2022-08-30T12:57:35.182Z,483.75
2022-08-30T12:58:29.612Z,433.12
2022-08-30T12:59:27.618Z,427.50
2022-08-30T13:00:27.690Z,427.50
2022-08-30T13:01:27.750Z,427.50
2022-08-30T13:02:27.684Z,472.50
2022-08-30T13:03:27.924Z,472.50
2022-08-30T13:04:27.587Z,551.25
2022-08-30T13:05:27.610Z,635.62
2022-08-30T13:06:27.664Z,455.62
2022-08-30T13:07:27.591Z,551.25
2022-08-30T13:08:27.611Z,635.62
2022-08-30T13:09:27.557Z,540.00
2022-08-30T13:10:28.561Z,472.50
2022-08-30T13:11:29.556Z,461.25
2022-08-30T13:12:27.531Z,585.00
2022-08-30T13:13:27.529Z,658.12
2022-08-30T13:14:27.499Z,725.62
2022-08-30T13:15:27.497Z,720.00
2022-08-30T13:16:29.564Z,720.00
2022-08-30T13:17:27.504Z,725.62
2022-08-30T13:18:27.539Z,708.75
2022-08-30T13:19:27.518Z,635.62
2022-08-30T13:20:27.478Z,703.12
2022-08-30T13:21:28.223Z,708.75
2022-08-30T13:22:27.474Z,731.25
2022-08-30T13:23:27.494Z,708.75
2022-08-30T13:24:27.413Z,590.62
2022-08-30T13:25:27.492Z,720.00
2022-08-30T13:26:27.434Z,675.00
2022-08-30T13:27:27.407Z,545.62
2022-08-30T13:28:27.402Z,511.88
2022-08-30T13:29:27.418Z,714.38
2022-08-30T13:30:27.371Z,472.50
2022-08-30T13:31:27.462Z,545.62
2022-08-30T13:32:27.410Z,450.00
2022-08-30T13:33:27.392Z,450.00
2022-08-30T13:34:27.447Z,568.12
2022-08-30T13:35:27.365Z,675.00
2022-08-30T13:36:27.351Z,669.38
2022-08-30T13:37:57.109Z,466.88
2022-08-30T13:38:29.346Z,652.50
2022-08-30T13:39:27.353Z,708.75
2022-08-30T13:40:27.341Z,691.88
2022-08-30T13:41:33.762Z,691.88
2022-08-30T13:42:32.005Z,691.88
2022-08-30T13:43:28.925Z,680.62
2022-08-30T13:44:28.346Z,680.62
2022-08-30T13:45:43.390Z,680.62
2022-08-30T13:46:29.334Z,675.00
2022-08-30T13:47:35.369Z,669.38
2022-08-30T13:48:29.286Z,663.75
2022-08-30T13:49:43.506Z,658.12
2022-08-30T13:50:30.534Z,663.75
2022-08-30T13:51:27.239Z,658.12
2022-08-30T13:52:27.246Z,646.88
2022-08-30T13:53:57.246Z,641.25
2022-08-30T13:54:29.247Z,641.25
2022-08-30T13:55:27.331Z,635.62
2022-08-30T13:56:27.203Z,635.62
2022-08-30T13:58:29.184Z,618.75
2022-08-30T13:59:27.239Z,607.50
2022-08-30T14:00:27.248Z,607.50
2022-08-30T14:01:27.472Z,607.50
2022-08-30T14:02:27.215Z,596.25
2022-08-30T14:03:27.533Z,596.25
2022-08-30T14:04:27.191Z,585.00
2022-08-30T14:06:33.946Z,388.12
2022-08-30T14:07:29.167Z,382.50
2022-08-30T14:09:29.126Z,371.25
2022-08-30T14:10:30.816Z,365.62
2022-08-30T14:11:28.115Z,360.00
2022-08-30T14:13:29.261Z,348.75
2022-08-30T14:14:42.546Z,343.12
2022-08-30T14:16:28.344Z,343.12
2022-08-30T14:17:59.653Z,343.12
2022-08-30T14:20:16.749Z,376.88
2022-08-30T14:21:13.921Z,534.38
2022-08-30T14:22:12.896Z,534.38
2022-08-30T14:23:12.901Z,528.75
2022-08-30T14:24:12.932Z,534.38
2022-08-30T14:25:12.883Z,523.12
2022-08-30T14:26:12.861Z,540.00
2022-08-30T14:27:14.127Z,416.25
2022-08-30T14:28:14.055Z,506.25
2022-08-30T14:29:14.641Z,517.50
2022-08-30T14:30:16.718Z,506.25
2022-08-30T14:31:15.069Z,506.25
2022-08-30T14:32:14.000Z,500.62
2022-08-30T14:33:14.002Z,506.25
2022-08-30T14:34:14.031Z,500.62
2022-08-30T14:35:13.964Z,489.38
2022-08-30T14:36:15.785Z,478.12
2022-08-30T14:37:14.012Z,438.75
2022-08-30T14:38:46.387Z,348.75
2022-08-30T14:39:13.989Z,343.12
2022-08-30T14:40:14.736Z,466.88
2022-08-30T14:41:13.983Z,393.75
2022-08-30T14:42:18.762Z,343.12
2022-08-30T14:43:14.985Z,343.12
2022-08-30T14:44:13.989Z,388.12
2022-08-30T14:45:13.977Z,483.75
2022-08-30T14:46:13.934Z,483.75
2022-08-30T14:47:13.955Z,472.50
2022-08-30T14:48:46.924Z,478.12
2022-08-30T14:49:13.875Z,472.50
2022-08-30T14:50:13.856Z,343.12
2022-08-30T14:51:13.867Z,382.50
2022-08-30T14:52:13.882Z,466.88
2022-08-30T14:53:13.877Z,405.00
2022-08-30T14:54:14.697Z,433.12
2022-08-30T14:55:13.960Z,461.25
2022-08-30T14:56:13.837Z,455.62
2022-08-30T14:57:13.858Z,450.00
2022-08-30T14:58:13.845Z,438.75
2022-08-30T14:59:13.780Z,433.12
2022-08-30T15:00:13.770Z,444.38
2022-08-30T15:01:13.827Z,438.75
2022-08-30T15:02:13.805Z,326.25
2022-08-30T15:03:13.833Z,348.75
2022-08-30T15:04:13.838Z,455.62
2022-08-30T15:05:13.831Z,455.62
2022-08-30T15:06:47.072Z,455.62
2022-08-30T15:11:26.371Z,438.75
2022-08-30T15:12:26.387Z,450.00
2022-08-30T15:13:27.513Z,517.50
2022-08-30T15:14:29.167Z,444.38
2022-08-30T15:15:28.413Z,433.12
2022-08-30T15:16:27.681Z,438.75
2022-08-30T15:17:29.123Z,450.00
2022-08-30T15:18:27.567Z,450.00
2022-08-30T15:19:27.532Z,433.12
2022-08-30T15:20:27.555Z,433.12
2022-08-30T15:21:27.602Z,421.88
2022-08-30T15:22:27.563Z,433.12
2022-08-30T15:24:00.118Z,455.62
2022-08-30T15:26:13.505Z,438.75
2022-08-30T15:27:14.911Z,433.12
2022-08-30T15:28:16.956Z,427.50
2022-08-30T15:29:15.316Z,427.50
2022-08-30T15:30:15.633Z,427.50
2022-08-30T15:31:14.833Z,500.62
2022-08-30T15:32:14.842Z,410.62
2022-08-30T15:33:14.744Z,410.62
2022-08-30T15:34:15.315Z,399.38
2022-08-30T15:35:14.662Z,405.00
2022-08-30T15:36:15.368Z,399.38
2022-08-30T15:37:14.682Z,388.12
2022-08-30T15:38:14.679Z,376.88
2022-08-30T15:39:15.330Z,388.12
2022-08-30T15:40:14.716Z,371.25
2022-08-30T15:41:14.702Z,365.62
2022-08-30T15:42:19.030Z,360.00
2022-08-30T15:43:15.709Z,376.88
2022-08-30T15:44:15.095Z,382.50
2022-08-30T15:46:34.644Z,343.12
2022-08-30T15:49:45.162Z,360.00
2022-08-30T15:50:45.181Z,376.88
2022-08-30T15:51:46.440Z,382.50
2022-08-30T15:52:46.421Z,382.50
2022-08-30T15:53:46.526Z,376.88
2022-08-30T15:54:48.383Z,376.88
2022-08-30T15:55:47.474Z,382.50
2022-08-30T15:56:46.350Z,382.50
2022-08-30T15:57:46.872Z,382.50
2022-08-30T15:58:46.384Z,382.50
2022-08-30T15:59:47.424Z,376.88
2022-08-30T16:00:46.308Z,376.88
2022-08-30T16:01:47.845Z,382.50
2022-08-30T16:02:46.339Z,376.88
2022-08-30T16:03:47.327Z,376.88
2022-08-30T16:04:46.404Z,371.25
2022-08-30T16:05:46.339Z,382.50
2022-08-30T16:06:46.914Z,365.62
2022-08-30T16:07:46.311Z,354.38
2022-08-30T16:08:47.437Z,354.38
2022-08-30T16:09:46.338Z,348.75
2022-08-30T16:10:48.077Z,348.75
2022-08-30T16:11:46.920Z,337.50
2022-08-30T16:12:46.308Z,331.88
2022-08-30T16:13:50.315Z,315.00
2022-08-30T16:14:47.292Z,309.38
2022-08-30T16:15:46.979Z,309.38
2022-08-30T16:16:46.341Z,281.25
2022-08-30T16:17:46.471Z,247.50
2022-08-30T16:18:46.581Z,264.38
2022-08-30T16:19:47.398Z,281.25
2022-08-30T16:20:47.303Z,298.12
2022-08-30T16:21:46.302Z,281.25
2022-08-30T16:22:47.098Z,286.88
2022-08-30T16:23:47.228Z,303.75
2022-08-30T16:24:46.960Z,303.75
2022-08-30T16:25:46.288Z,292.50
2022-08-30T16:26:46.382Z,275.62
2022-08-30T16:27:47.175Z,275.62
2022-08-30T16:28:46.747Z,286.88
2022-08-30T16:30:18.615Z,275.62
2022-08-30T16:30:46.147Z,270.00
2022-08-30T16:31:47.349Z,264.38
2022-08-30T16:32:46.254Z,247.50
2022-08-30T16:33:47.437Z,241.88
2022-08-30T16:34:47.479Z,241.88
2022-08-30T16:35:46.964Z,213.75
2022-08-30T16:36:46.960Z,219.38
2022-08-30T16:37:46.489Z,213.75
2022-08-30T16:38:46.205Z,202.50
2022-08-30T16:39:47.101Z,219.38
2022-08-30T16:40:46.961Z,236.25
2022-08-30T16:41:46.064Z,241.88
2022-08-30T16:42:46.982Z,247.50
2022-08-30T16:43:46.106Z,219.38
2022-08-30T16:44:46.963Z,213.75
2022-08-30T16:45:46.075Z,241.88